Latest Weather Observations for Albany Airport

IDW60801

Issued at 7:33 am WST Thursday 25 May 2017 (issued every 30 minutes, with the page automatically refreshed every 10 minutes)

About weather observations | Map of weather stations | Latest weather observations for WA | Other Formats
Station Details ID: 009999 Name: ALBANY AIRPORT Lat: -34.94 Lon: 117.82 Height: 68.4 m
Data from the previous 72 hours. | See also: Recent months at Albany Airport
Date/Time
WST
Temp
°C
App
Temp
°C
Dew
Point
°C
Rel
Hum
%
Delta-T
°C
Wind Press
QNH
hPa
Press
MSL
hPa
Rain since
9am
mm
Dir  Spd
km/h
Gust
km/h
Spd
kts
Gust
kts
25/07:00am 11.1 7.6 10.1 94 0.5 NNW 19 22 10 12 1020.0 - 0.2
25/06:30am 10.9 7.7 10.1 95 0.4 NNW 17 22 9 12 1019.8 - 0.2
25/06:00am 10.6 7.8 10.0 96 0.3 N 15 19 8 10 1019.6 1019.7 0.0
25/05:30am 10.1 8.0 9.7 97 0.2 N 11 15 6 8 1019.6 - 0.0
25/05:00am 9.5 7.9 8.9 96 0.3 N 7 9 4 5 1019.6 - 0.0
25/04:30am 10.7 8.7 10.3 97 0.2 NNW 11 15 6 8 1019.5 - 0.0
25/04:00am 10.1 8.4 9.9 99 0.1 NNW 9 13 5 7 1019.8 - 0.0
25/03:30am 10.1 8.0 9.7 97 0.2 NNW 11 13 6 7 1019.6 - 0.0
25/03:00am 10.0 7.5 9.6 97 0.2 NW 13 17 7 9 1019.7 1019.8 0.0
25/02:30am 10.8 8.5 10.4 97 0.2 NNW 13 20 7 11 1019.9 - 0.0
25/02:00am 9.9 7.8 9.9 100 0.0 NNW 11 13 6 7 1019.9 - 0.0
25/01:30am 9.4 7.2 9.2 99 0.1 NW 11 13 6 7 1020.0 - 0.0
25/01:00am 9.9 7.5 9.9 100 0.0 NW 13 15 7 8 1020.1 - 0.0
25/12:30am 10.1 7.7 9.9 99 0.1 NW 13 15 7 8 1020.3 - 0.0
25/12:00am 9.6 7.4 9.4 99 0.1 NW 11 11 6 6 1020.5 1020.6 0.0
 
Date/Time
WST
Temp
°C
App
Temp
°C
Dew
Point
°C
Rel
Hum
%
Delta-T
°C
Wind Press
QNH
hPa
Press
MSL
hPa
Rain since
9am
mm
Dir  Spd
km/h
Gust
km/h
Spd
kts
Gust
kts
24/11:30pm 10.4 8.0 10.0 97 0.2 WNW 13 15 7 8 1020.5 - 0.0
24/11:00pm 10.5 8.2 10.3 99 0.1 NW 13 17 7 9 1020.7 - 0.0
24/10:30pm 10.4 8.4 10.2 99 0.1 NW 11 13 6 7 1020.9 - 0.0
24/10:00pm 10.7 8.7 10.3 97 0.2 NW 11 15 6 8 1021.0 - 0.0
24/09:47pm 10.1 8.0 9.9 99 0.1 NNW 11 13 6 7 1021.0 - 0.0
24/09:30pm 10.1 8.5 10.1 100 0.0 NW 9 11 5 6 1021.0 - 0.0
24/09:29pm 10.2 8.5 10.0 99 0.1 NW 9 11 5 6 1021.0 - 0.0
24/09:00pm 10.9 9.0 10.5 97 0.2 NNW 11 13 6 7 1021.0 1021.1 0.0
24/08:30pm 11.5 10.5 11.1 97 0.2 N 7 9 4 5 1020.9 - 0.0
24/08:00pm 11.8 10.4 11.0 95 0.4 NNW 9 9 5 5 1020.7 - 0.0
24/07:30pm 12.2 10.8 10.9 92 0.7 NNW 9 9 5 5 1020.7 - 0.0
24/07:00pm 14.2 13.0 11.6 84 1.4 W 9 11 5 6 1020.8 - 0.0
24/06:30pm 14.4 12.4 11.4 82 1.6 NNW 13 19 7 10 1020.4 - 0.0
24/06:00pm 14.4 12.7 11.2 81 1.7 WNW 11 13 6 7 1020.3 1020.4 0.0
24/05:30pm 15.3 13.2 11.0 75 2.3 W 13 19 7 10 1019.9 - 0.0
24/05:00pm 15.9 14.1 10.8 71 2.7 WSW 11 15 6 8 1019.6 - 0.0
24/04:30pm 16.5 14.1 10.0 65 3.4 W 13 19 7 10 1019.5 - 0.0
24/04:00pm 16.9 14.5 9.9 63 3.7 W 13 19 7 10 1019.2 - 0.0
24/03:30pm 17.1 13.1 9.2 59 4.1 W 20 28 11 15 1018.9 - 0.0
24/03:00pm 17.8 14.4 9.2 57 4.5 W 17 26 9 14 1018.7 1018.8 0.0
24/02:30pm 17.1 12.8 9.2 59 4.1 W 22 28 12 15 1018.6 - 0.0
24/02:00pm 17.3 13.2 8.8 57 4.4 W 20 28 11 15 1018.6 - 0.0
24/01:30pm 17.1 12.7 8.8 58 4.3 W 22 33 12 18 1018.7 - 0.0
24/01:00pm 17.0 13.6 10.6 66 3.4 W 19 26 10 14 1018.7 - 0.0
24/12:30pm 17.6 11.5 10.5 63 3.8 WNW 33 39 18 21 1018.7 - 0.0
24/12:00pm 16.9 12.6 10.7 67 3.3 WNW 24 30 13 16 1019.0 1019.1 0.0
24/11:30am 16.1 11.9 11.1 72 2.7 WNW 24 33 13 18 1019.4 - 0.0
24/11:00am 16.5 13.3 11.9 74 2.5 WNW 20 26 11 14 1019.6 - 0.0
24/10:30am 15.1 11.7 11.2 77 2.1 WNW 20 26 11 14 1019.8 - 0.0
24/10:00am 14.8 10.6 11.2 79 1.9 WNW 24 30 13 16 1019.9 - 0.0
24/09:30am 14.4 11.0 11.4 82 1.6 WNW 20 26 11 14 1019.9 - 0.0
24/09:00am 14.1 10.7 11.1 82 1.6 WNW 20 24 11 13 1019.5 1019.6 4.2
24/08:30am 14.4 11.1 11.0 80 1.8 NW 19 26 10 14 1019.4 - 4.2
24/08:00am 13.7 11.6 11.0 84 1.4 NW 13 19 7 10 1019.3 - 4.2
24/07:30am 12.9 10.4 11.2 89 0.9 NW 15 19 8 10 1018.9 - 4.2
24/07:00am 12.9 9.6 11.0 88 1.0 NW 19 24 10 13 1018.8 - 4.2
24/06:30am 12.4 10.4 11.6 95 0.4 NW 13 17 7 9 1018.7 - 4.2
24/06:00am 13.1 11.3 12.2 94 0.5 NW 13 17 7 9 1018.4 1018.5 4.2
24/05:30am 13.1 11.4 12.4 95 0.4 NW 13 17 7 9 1018.3 - 4.2
24/05:00am 13.3 11.6 12.6 95 0.4 NW 13 19 7 10 1018.3 - 4.2
24/04:30am 13.0 10.5 12.3 95 0.4 NW 17 19 9 10 1018.3 - 4.2
24/04:00am 13.3 11.3 12.7 96 0.3 NW 15 19 8 10 1018.1 - 4.0
24/03:30am 13.4 11.1 12.9 97 0.3 NW 17 20 9 11 1018.2 - 4.0
24/03:01am 13.2 10.4 12.6 96 0.3 NW 19 24 10 13 1018.2 - 4.0
24/03:00am 13.2 10.4 12.6 96 0.3 NW 19 24 10 13 1018.2 1018.3 4.0
24/02:44am 13.1 11.4 12.5 96 0.3 NW 13 19 7 10 1018.2 - 4.0
24/02:30am 12.9 11.2 12.5 97 0.2 NW 13 17 7 9 1018.2 - 4.0
24/02:00am 12.9 10.8 12.5 97 0.2 NW 15 20 8 11 1018.2 - 4.0
24/01:30am 12.7 10.5 12.1 96 0.3 NW 15 19 8 10 1018.3 - 4.0
24/01:00am 12.4 10.9 11.8 96 0.3 NW 11 17 6 9 1018.4 - 4.0
24/12:30am 12.2 10.3 11.8 97 0.2 NW 13 17 7 9 1018.5 - 4.0
24/12:00am 12.4 10.9 12.0 97 0.2 NW 11 15 6 8 1018.6 1018.7 4.0
 
Date/Time
WST
Temp
°C
App
Temp
°C
Dew
Point
°C
Rel
Hum
%
Delta-T
°C
Wind Press
QNH
hPa
Press
MSL
hPa
Rain since
9am
mm
Dir  Spd
km/h
Gust
km/h
Spd
kts
Gust
kts
23/11:30pm 12.0 10.9 11.8 99 0.1 NNW 9 11 5 6 1018.8 - 4.0
23/11:00pm 12.3 10.9 12.1 99 0.1 NNW 11 15 6 8 1019.2 - 4.0
23/10:30pm 12.1 11.0 11.9 99 0.1 NNW 9 13 5 7 1019.3 - 4.0
23/10:00pm 12.3 11.2 11.9 97 0.2 NNW 9 11 5 6 1019.5 - 4.0
23/09:30pm 12.9 12.0 12.5 97 0.2 NNW 9 11 5 6 1019.5 - 4.0
23/09:00pm 13.4 12.6 13.0 97 0.2 NW 9 13 5 7 1019.5 1019.6 4.0
23/08:30pm 14.1 13.2 13.6 97 0.3 NNW 11 15 6 8 1019.6 - 3.8
23/08:00pm 14.4 13.7 14.2 99 0.1 NW 11 13 6 7 1019.8 - 3.8
23/07:38pm 14.1 13.2 13.7 97 0.2 WNW 11 15 6 8 1019.8 - 3.8
23/07:36pm 14.2 13.4 14.0 99 0.1 WNW 11 15 6 8 1019.8 - 3.8
23/07:30pm 14.6 13.5 14.2 97 0.2 WNW 13 15 7 8 1019.8 - 3.8
23/07:20pm 14.9 13.9 14.5 97 0.2 WNW 13 15 7 8 1019.9 - 3.8
23/07:14pm 14.8 13.8 14.6 99 0.1 WNW 13 19 7 10 1019.9 - 3.8
23/07:00pm 15.1 14.0 14.4 96 0.4 NW 13 19 7 10 1019.9 - 3.8
23/06:54pm 15.0 14.7 14.5 97 0.3 NNW 9 19 5 10 1019.9 - 3.8
23/06:51pm 14.9 14.6 14.5 97 0.2 NNW 9 13 5 7 1019.9 - 3.8
23/06:30pm 15.0 14.4 14.6 97 0.2 WNW 11 13 6 7 1019.9 - 3.4
23/06:00pm 15.2 14.6 14.7 97 0.3 WNW 11 13 6 7 1019.7 1019.8 3.0
23/05:59pm 15.1 14.5 14.7 97 0.2 WNW 11 13 6 7 1019.7 - 3.0
23/05:57pm 15.2 14.6 14.7 97 0.3 WNW 11 15 6 8 1019.7 - 3.0
23/05:46pm 15.2 14.6 14.7 97 0.3 WNW 11 13 6 7 1019.6 - 3.0
23/05:32pm 15.2 14.6 14.7 97 0.3 WNW 11 13 6 7 1019.5 - 3.0
23/05:30pm 15.2 14.6 14.7 97 0.3 WNW 11 15 6 8 1019.5 - 3.0
23/05:00pm 15.4 14.9 14.9 97 0.3 W 11 13 6 7 1019.3 - 2.4
23/04:58pm 15.4 14.9 14.9 97 0.3 W 11 15 6 8 1019.3 - 2.4
23/04:31pm 15.7 16.0 15.0 96 0.4 W 7 9 4 5 1019.1 - 2.0
23/04:30pm 15.6 15.9 14.9 96 0.4 W 7 9 4 5 1019.1 - 2.0
23/04:16pm 15.7 15.5 14.8 94 0.5 NW 9 11 5 6 1019.0 - 1.0
23/04:00pm 16.0 15.5 15.0 94 0.6 WNW 11 13 6 7 1018.9 - 1.0
23/03:41pm 16.1 15.7 15.1 94 0.6 WNW 11 15 6 8 1018.8 - 1.0
23/03:30pm 15.9 15.2 15.4 97 0.3 W 13 24 7 13 1018.8 - 1.0
23/03:21pm 15.7 14.4 14.8 94 0.5 W 15 24 8 13 1018.8 - 1.0
23/03:04pm 16.4 15.4 14.7 90 1.0 WSW 13 15 7 8 1018.7 - 0.0
23/03:00pm 16.8 16.1 14.4 86 1.4 WSW 11 15 6 8 1018.6 1018.7 0.0
23/02:30pm 17.3 16.0 13.6 79 2.1 WSW 13 17 7 9 1018.5 - 0.0
23/02:00pm 17.6 16.2 13.3 76 2.4 WNW 13 17 7 9 1018.6 - 0.0
23/01:30pm 17.3 16.3 13.4 78 2.2 W 11 20 6 11 1018.7 - 0.0
23/01:00pm 16.9 14.8 13.5 80 1.9 W 17 24 9 13 1018.8 - 0.0
23/12:30pm 16.9 14.1 13.1 78 2.1 W 20 30 11 16 1018.9 - 0.0
23/12:00pm 17.4 13.2 12.5 73 2.7 WNW 26 33 14 18 1019.1 1019.2 0.0
23/11:30am 17.4 14.1 12.7 74 2.6 WNW 22 28 12 15 1019.5 - 0.0
23/11:00am 17.5 14.6 13.0 75 2.5 WNW 20 28 11 15 1019.9 - 0.0
23/10:30am 16.4 13.5 12.8 79 2.0 NW 20 28 11 15 1020.1 - 0.0
23/10:00am 16.4 13.4 12.6 78 2.1 WNW 20 26 11 14 1020.1 - 0.0
23/09:30am 15.8 13.0 12.5 81 1.8 WNW 19 24 10 13 1020.1 - 0.0
23/09:00am 14.6 11.6 12.0 84 1.4 NW 19 24 10 13 1020.0 1020.1 0.4
23/08:30am 13.8 10.7 11.7 87 1.1 NW 19 24 10 13 1019.9 - 0.4
23/08:00am 13.0 9.9 11.5 91 0.8 NW 19 24 10 13 1019.6 - 0.4
23/07:30am 12.2 9.3 10.9 92 0.7 NW 17 20 9 11 1019.3 - 0.4
23/07:00am 12.2 8.9 10.9 92 0.7 WNW 19 22 10 12 1019.0 - 0.4
23/06:30am 11.9 8.5 10.7 92 0.6 WNW 19 22 10 12 1018.7 - 0.4
23/06:00am 11.9 8.9 10.5 91 0.7 NW 17 22 9 12 1018.7 1018.8 0.4
23/05:30am 12.0 8.7 10.8 92 0.6 WNW 19 22 10 12 1018.5 - 0.4
23/05:00am 11.1 8.4 10.3 95 0.4 NW 15 19 8 10 1018.2 - 0.4
23/04:30am 11.1 8.1 10.5 96 0.3 NW 17 20 9 11 1018.0 - 0.4
23/04:00am 11.3 8.3 10.7 96 0.3 NW 17 20 9 11 1018.0 - 0.4
23/03:30am 11.0 8.6 10.2 95 0.4 WNW 13 17 7 9 1018.0 - 0.4
23/03:00am 11.5 8.9 10.7 95 0.4 WNW 15 19 8 10 1018.1 1018.2 0.4
23/02:30am 11.1 9.1 10.3 95 0.4 NW 11 15 6 8 1017.9 - 0.4
23/02:00am 11.7 9.1 10.7 94 0.5 WNW 15 19 8 10 1018.0 - 0.4
23/01:30am 12.2 8.8 10.7 90 0.8 WNW 19 24 10 13 1017.8 - 0.4
23/01:00am 12.5 9.6 11.0 90 0.8 WNW 17 22 9 12 1018.0 - 0.4
23/12:30am 12.6 8.7 10.7 88 1.0 WNW 22 30 12 16 1018.0 - 0.4
23/12:00am 12.5 9.2 10.8 89 0.9 WNW 19 24 10 13 1018.1 1018.2 0.4
 
Date/Time
WST
Temp
°C
App
Temp
°C
Dew
Point
°C
Rel
Hum
%
Delta-T
°C
Wind Press
QNH
hPa
Press
MSL
hPa
Rain since
9am
mm
Dir  Spd
km/h
Gust
km/h
Spd
kts
Gust
kts
22/11:30pm 11.9 9.2 10.5 91 0.7 NW 15 19 8 10 1018.3 - 0.4
22/11:00pm 12.1 9.5 10.8 92 0.7 NW 15 19 8 10 1018.6 - 0.4
22/10:30pm 12.3 9.4 11.0 92 0.7 WNW 17 20 9 11 1018.5 - 0.4
22/10:00pm 12.3 9.0 11.0 92 0.7 WNW 19 26 10 14 1018.7 - 0.4
22/09:30pm 12.1 9.5 10.8 92 0.7 NW 15 20 8 11 1018.5 - 0.4
22/09:00pm 12.6 9.8 11.3 92 0.7 WNW 17 22 9 12 1018.6 1018.7 0.4
22/08:52pm 12.7 9.5 11.2 91 0.8 WNW 19 22 10 12 1018.6 - 0.4
22/08:35pm 12.9 8.8 11.4 91 0.8 WNW 24 39 13 21 1018.6 - 0.4
22/08:30pm 13.2 9.3 10.9 86 1.2 WNW 22 35 12 19 1018.6 - 0.4
22/08:00pm 12.9 10.0 11.0 88 1.0 NW 17 20 9 11 1018.3 - 0.4
22/07:30pm 13.2 10.7 10.9 86 1.2 NW 15 20 8 11 1018.2 - 0.4
22/07:00pm 13.1 10.8 10.4 84 1.4 NW 13 17 7 9 1017.9 - 0.4
22/06:30pm 13.4 10.9 9.7 78 1.9 NW 13 17 7 9 1017.6 - 0.4
22/06:00pm 13.5 10.6 9.6 77 2.0 WNW 15 19 8 10 1017.2 1017.3 0.4
22/05:30pm 13.3 10.8 9.6 78 1.9 WNW 13 17 7 9 1016.9 - 0.4
22/05:00pm 14.3 11.0 9.4 72 2.5 W 17 20 9 11 1016.5 - 0.4
22/04:30pm 15.2 10.5 9.2 67 3.1 W 24 35 13 19 1016.4 - 0.4
22/04:00pm 15.2 10.7 10.2 72 2.6 W 24 35 13 19 1016.1 - 0.4
22/03:30pm 15.4 11.2 11.1 75 2.3 W 24 33 13 18 1015.8 - 0.4
22/03:00pm 14.9 11.3 11.9 82 1.6 W 22 30 12 16 1015.6 1015.7 0.4
22/02:30pm 14.6 11.0 12.0 84 1.4 W 22 33 12 18 1015.3 - 0.4
22/02:19pm 14.2 10.3 12.2 88 1.1 W 24 32 13 17 1015.2 - 0.4
22/02:00pm 14.8 11.2 12.0 83 1.5 WNW 22 30 12 16 1015.1 - 0.4
22/01:30pm 13.2 9.0 12.3 94 0.5 WNW 26 33 14 18 1015.1 - 0.4
22/01:00pm 14.4 11.0 10.4 77 2.1 WNW 19 30 10 16 1014.9 - 0.2
22/12:30pm 14.0 8.8 10.2 78 2.0 W 28 35 15 19 1014.9 - 0.2
22/12:00pm 13.9 11.0 10.9 82 1.6 W 17 30 9 16 1015.2 1015.3 0.2
22/11:31am 13.1 8.6 10.2 82 1.5 WNW 24 33 13 18 1015.5 - 0.0
22/11:30am 13.1 8.6 10.2 82 1.5 WNW 24 33 13 18 1015.5 - 0.0
22/11:00am 12.6 8.6 10.5 87 1.1 WNW 22 30 12 16 1015.7 - 0.0
22/10:30am 13.4 8.7 9.1 75 2.2 WNW 24 35 13 19 1015.6 - 0.0
22/10:00am 12.6 7.5 9.2 80 1.7 WNW 26 32 14 17 1015.6 - 0.0
22/09:30am 11.0 6.9 8.6 85 1.2 WNW 20 26 11 14 1015.3 - 0.0
22/09:00am 10.4 6.2 8.1 86 1.1 NW 20 26 11 14 1015.3 1015.4 7.6
22/08:30am 8.8 5.0 7.5 91 0.6 NW 17 22 9 12 1015.0 - 7.6
22/08:00am 9.0 5.1 7.3 89 0.8 NW 17 22 9 12 1014.8 - 7.0

Other Formats:

Comma delimited format used in spreadsheet applications
http://www.bom.gov.au/fwo/IDW60801/IDW60801.94802.axf

JavaScript Object Notation format (JSON) in row-major order
http://www.bom.gov.au/fwo/IDW60801/IDW60801.94802.json